sensor_id;sensor_type;location;lat;lon;timestamp;pressure;altitude;pressure_sealevel;temperature;humidity
34586;BME280;20816;50.950;11.108;2023-01-31T00:01:36;98762.28;;;2.71;100.00
34586;BME280;20816;50.950;11.108;2023-01-31T00:04:06;98776.06;;;2.67;100.00
34586;BME280;20816;50.950;11.108;2023-01-31T00:06:40;98770.97;;;2.75;100.00
34586;BME280;20816;50.950;11.108;2023-01-31T00:09:09;98756.22;;;2.71;100.00
34586;BME280;20816;50.950;11.108;2023-01-31T00:11:36;98761.50;;;2.77;100.00
34586;BME280;20816;50.950;11.108;2023-01-31T00:14:04;98757.97;;;2.75;100.00
34586;BME280;20816;50.950;11.108;2023-01-31T00:16:32;98764.88;;;2.73;100.00
34586;BME280;20816;50.950;11.108;2023-01-31T00:18:58;98766.59;;;2.71;100.00
34586;BME280;20816;50.950;11.108;2023-01-31T00:21:27;98775.34;;;2.79;100.00
34586;BME280;20816;50.950;11.108;2023-01-31T00:23:55;98774.47;;;2.78;100.00
34586;BME280;20816;50.950;11.108;2023-01-31T00:26:28;98786.72;;;2.90;100.00
34586;BME280;20816;50.950;11.108;2023-01-31T00:28:57;98782.34;;;2.86;100.00
34586;BME280;20816;50.950;11.108;2023-01-31T00:31:27;98784.97;;;2.89;100.00
34586;BME280;20816;50.950;11.108;2023-01-31T00:33:54;98794.50;;;2.90;100.00
34586;BME280;20816;50.950;11.108;2023-01-31T00:36:24;98784.13;;;2.92;100.00
34586;BME280;20816;50.950;11.108;2023-01-31T00:38:53;98785.06;;;2.97;100.00
34586;BME280;20816;50.950;11.108;2023-01-31T00:41:22;98777.25;;;2.95;100.00
34586;BME280;20816;50.950;11.108;2023-01-31T00:43:49;98784.19;;;2.93;100.00
34586;BME280;20816;50.950;11.108;2023-01-31T00:46:17;98780.66;;;2.91;100.00
34586;BME280;20816;50.950;11.108;2023-01-31T00:48:46;98787.56;;;2.88;100.00
34586;BME280;20816;50.950;11.108;2023-01-31T00:51:13;98793.56;;;2.84;100.00
34586;BME280;20816;50.950;11.108;2023-01-31T00:53:40;98782.31;;;2.83;100.00
34586;BME280;20816;50.950;11.108;2023-01-31T00:56:19;98797.03;;;2.84;100.00
34586;BME280;20816;50.950;11.108;2023-01-31T00:58:47;98797.88;;;2.83;100.00
34586;BME280;20816;50.950;11.108;2023-01-31T01:01:17;98800.38;;;2.75;100.00
34586;BME280;20816;50.950;11.108;2023-01-31T01:03:45;98806.44;;;2.76;100.00
34586;BME280;20816;50.950;11.108;2023-01-31T01:06:12;98815.94;;;2.75;100.00
34586;BME280;20816;50.950;11.108;2023-01-31T01:08:40;98815.06;;;2.72;100.00
34586;BME280;20816;50.950;11.108;2023-01-31T01:13:35;98815.03;;;2.69;100.00
34586;BME280;20816;50.950;11.108;2023-01-31T01:16:07;98840.03;;;2.65;100.00
34586;BME280;20816;50.950;11.108;2023-01-31T01:18:35;98832.25;;;2.64;100.00
34586;BME280;20816;50.950;11.108;2023-01-31T01:21:10;98832.38;;;2.76;100.00
34586;BME280;20816;50.950;11.108;2023-01-31T01:23:39;98844.56;;;2.80;100.00
34586;BME280;20816;50.950;11.108;2023-01-31T01:26:12;98835.03;;;2.79;100.00
34586;BME280;20816;50.950;11.108;2023-01-31T01:28:40;98838.56;;;2.84;100.00
34586;BME280;20816;50.950;11.108;2023-01-31T01:31:08;98843.81;;;2.89;100.00
34586;BME280;20816;50.950;11.108;2023-01-31T01:33:35;98834.22;;;2.83;100.00
34586;BME280;20816;50.950;11.108;2023-01-31T01:36:05;98843.72;;;2.83;100.00
34586;BME280;20816;50.950;11.108;2023-01-31T01:38:35;98842.91;;;2.85;100.00
34586;BME280;20816;50.950;11.108;2023-01-31T01:41:03;98842.00;;;2.83;100.00
34586;BME280;20816;50.950;11.108;2023-01-31T01:43:50;98848.16;;;2.91;100.00
34586;BME280;20816;50.950;11.108;2023-01-31T01:46:23;98838.56;;;2.84;100.00
34586;BME280;20816;50.950;11.108;2023-01-31T01:48:57;98842.94;;;2.88;100.00
34586;BME280;20816;50.950;11.108;2023-01-31T01:51:27;98834.28;;;2.89;100.00
34586;BME280;20816;50.950;11.108;2023-01-31T01:53:58;98823.13;;;2.93;100.00
34586;BME280;20816;50.950;11.108;2023-01-31T01:56:30;98831.69;;;2.88;100.00
34586;BME280;20816;50.950;11.108;2023-01-31T01:59:03;98835.94;;;2.81;100.00
34586;BME280;20816;50.950;11.108;2023-01-31T02:01:35;98834.22;;;2.83;100.00
34586;BME280;20816;50.950;11.108;2023-01-31T02:04:04;98829.09;;;2.86;100.00
34586;BME280;20816;50.950;11.108;2023-01-31T02:06:32;98829.94;;;2.87;100.00
34586;BME280;20816;50.950;11.108;2023-01-31T02:09:00;98838.53;;;2.81;100.00
34586;BME280;20816;50.950;11.108;2023-01-31T02:11:30;98837.66;;;2.80;100.00
34586;BME280;20816;50.950;11.108;2023-01-31T02:14:03;98842.13;;;2.92;100.00
34586;BME280;20816;50.950;11.108;2023-01-31T02:16:30;98837.75;;;2.88;100.00
34586;BME280;20816;50.950;11.108;2023-01-31T02:18:57;98856.81;;;2.90;100.00
34586;BME280;20816;50.950;11.108;2023-01-31T02:30:08;98867.25;;;2.93;100.00
34586;BME280;20816;50.950;11.108;2023-01-31T02:33:05;98890.41;;;2.78;100.00
34586;BME280;20816;50.950;11.108;2023-01-31T02:35:57;98880.91;;;2.80;100.00
34586;BME280;20816;50.950;11.108;2023-01-31T02:38:51;98884.28;;;2.74;100.00
34586;BME280;20816;50.950;11.108;2023-01-31T02:41:35;98879.06;;;2.73;100.00
34586;BME280;20816;50.950;11.108;2023-01-31T02:44:14;98877.31;;;2.70;100.00
34586;BME280;20816;50.950;11.108;2023-01-31T02:50:03;98895.50;;;2.72;100.00
34586;BME280;20816;50.950;11.108;2023-01-31T02:52:44;98898.94;;;2.69;100.00
34586;BME280;20816;50.950;11.108;2023-01-31T02:55:22;98910.91;;;2.61;100.00
34586;BME280;20816;50.950;11.108;2023-01-31T02:58:12;98906.66;;;2.68;100.00
34586;BME280;20816;50.950;11.108;2023-01-31T03:00:42;98910.94;;;2.63;100.00
34586;BME280;20816;50.950;11.108;2023-01-31T03:03:40;98909.97;;;2.56;100.00
34586;BME280;20816;50.950;11.108;2023-01-31T03:09:18;98906.66;;;2.68;100.00
34586;BME280;20816;50.950;11.108;2023-01-31T03:18:04;98921.31;;;2.63;100.00
34586;BME280;20816;50.950;11.108;2023-01-31T03:20:41;98913.66;;;2.72;100.00
34586;BME280;20816;50.950;11.108;2023-01-31T03:23:13;98932.59;;;2.65;100.00
34586;BME280;20816;50.950;11.108;2023-01-31T03:25:42;98925.00;;;2.78;100.00
34586;BME280;20816;50.950;11.108;2023-01-31T03:28:13;98929.34;;;2.78;100.00
34586;BME280;20816;50.950;11.108;2023-01-31T03:30:58;98931.09;;;2.82;100.00
34586;BME280;20816;50.950;11.108;2023-01-31T03:33:29;98927.59;;;2.77;100.00
34586;BME280;20816;50.950;11.108;2023-01-31T03:36:27;98919.88;;;2.83;100.00
34586;BME280;20816;50.950;11.108;2023-01-31T03:39:13;98924.28;;;2.87;100.00
34586;BME280;20816;50.950;11.108;2023-01-31T03:42:01;98920.81;;;2.87;100.00
34586;BME280;20816;50.950;11.108;2023-01-31T03:44:48;98929.41;;;2.84;100.00
34586;BME280;20816;50.950;11.108;2023-01-31T03:47:43;98938.09;;;2.86;100.00
34586;BME280;20816;50.950;11.108;2023-01-31T03:50:27;98936.25;;;2.79;100.00
34586;BME280;20816;50.950;11.108;2023-01-31T03:53:00;98931.06;;;2.79;100.00
34586;BME280;20816;50.950;11.108;2023-01-31T03:55:36;98933.69;;;2.82;100.00
34586;BME280;20816;50.950;11.108;2023-01-31T03:58:07;98935.31;;;2.74;100.00
34586;BME280;20816;50.950;11.108;2023-01-31T04:00:35;98927.53;;;2.74;100.00
34586;BME280;20816;50.950;11.108;2023-01-31T04:03:13;98931.72;;;2.66;100.00
34586;BME280;20816;50.950;11.108;2023-01-31T04:05:42;98916.94;;;2.60;100.00
34586;BME280;20816;50.950;11.108;2023-01-31T04:08:08;98920.59;;;2.71;100.00
34586;BME280;20816;50.950;11.108;2023-01-31T04:10:35;98926.50;;;2.61;100.00
34586;BME280;20816;50.950;11.108;2023-01-31T04:13:02;98920.25;;;2.51;100.00
34586;BME280;20816;50.950;11.108;2023-01-31T04:15:29;98906.53;;;2.59;100.00
34586;BME280;20816;50.950;11.108;2023-01-31T04:17:56;98915.19;;;2.58;100.00
34586;BME280;20816;50.950;11.108;2023-01-31T04:20:22;98918.59;;;2.53;100.00
34586;BME280;20816;50.950;11.108;2023-01-31T04:22:49;98915.16;;;2.55;100.00
34586;BME280;20816;50.950;11.108;2023-01-31T04:25:16;98917.00;;;2.62;100.00
34586;BME280;20816;50.950;11.108;2023-01-31T04:27:43;98911.81;;;2.65;100.00
34586;BME280;20816;50.950;11.108;2023-01-31T04:30:10;98913.47;;;2.60;100.00
34586;BME280;20816;50.950;11.108;2023-01-31T04:32:37;98912.56;;;2.56;100.00
34586;BME280;20816;50.950;11.108;2023-01-31T04:35:04;98914.31;;;2.57;100.00
34586;BME280;20816;50.950;11.108;2023-01-31T04:37:31;98906.72;;;2.71;100.00
34586;BME280;20816;50.950;11.108;2023-01-31T04:39:58;98920.38;;;2.58;100.00
34586;BME280;20816;50.950;11.108;2023-01-31T04:42:24;98917.88;;;2.64;100.00
34586;BME280;20816;50.950;11.108;2023-01-31T04:44:51;98925.66;;;2.64;100.00
34586;BME280;20816;50.950;11.108;2023-01-31T04:47:18;98923.81;;;2.57;100.00
34586;BME280;20816;50.950;11.108;2023-01-31T04:49:45;98927.16;;;2.49;100.00
34586;BME280;20816;50.950;11.108;2023-01-31T04:52:11;98925.56;;;2.58;100.00
34586;BME280;20816;50.950;11.108;2023-01-31T04:54:38;98933.41;;;2.61;100.00
34586;BME280;20816;50.950;11.108;2023-01-31T04:57:05;98928.97;;;2.53;100.00
34586;BME280;20816;50.950;11.108;2023-01-31T04:59:31;98925.44;;;2.50;100.00
34586;BME280;20816;50.950;11.108;2023-01-31T05:01:59;98926.28;;;2.47;100.00
34586;BME280;20816;50.950;11.108;2023-01-31T05:04:25;98923.78;;;2.53;100.00
34586;BME280;20816;50.950;11.108;2023-01-31T05:06:52;98932.28;;;2.45;100.00
34586;BME280;20816;50.950;11.108;2023-01-31T05:09:19;98926.38;;;2.53;100.00
34586;BME280;20816;50.950;11.108;2023-01-31T05:11:48;98930.56;;;2.45;100.00
34586;BME280;20816;50.950;11.108;2023-01-31T05:14:15;98925.44;;;2.51;100.00
34586;BME280;20816;50.950;11.108;2023-01-31T05:16:42;98918.44;;;2.44;100.00
34586;BME280;20816;50.950;11.108;2023-01-31T05:19:14;98927.03;;;2.40;100.00
34586;BME280;20816;50.950;11.108;2023-01-31T05:21:40;98930.47;;;2.39;100.00
34586;BME280;20816;50.950;11.108;2023-01-31T05:24:27;98935.31;;;2.19;100.00
34586;BME280;20816;50.950;11.108;2023-01-31T05:26:55;98943.88;;;2.14;100.00
34586;BME280;20816;50.950;11.108;2023-01-31T05:29:25;98937.88;;;2.18;100.00
34586;BME280;20816;50.950;11.108;2023-01-31T05:31:56;98932.63;;;2.13;100.00
34586;BME280;20816;50.950;11.108;2023-01-31T05:34:24;98935.09;;;2.06;100.00
34586;BME280;20816;50.950;11.108;2023-01-31T05:36:51;98930.09;;;2.16;100.00
34586;BME280;20816;50.950;11.108;2023-01-31T05:39:18;98926.44;;;2.05;100.00
34586;BME280;20816;50.950;11.108;2023-01-31T05:41:45;98931.66;;;2.07;100.00
34586;BME280;20816;50.950;11.108;2023-01-31T05:44:12;98925.63;;;2.09;100.00
34586;BME280;20816;50.950;11.108;2023-01-31T05:46:39;98921.94;;;1.95;100.00
34586;BME280;20816;50.950;11.108;2023-01-31T05:49:06;98927.91;;;1.91;100.00
34586;BME280;20816;50.950;11.108;2023-01-31T05:51:33;98924.72;;;2.06;100.00
34586;BME280;20816;50.950;11.108;2023-01-31T05:54:00;98923.13;;;2.14;100.00
34586;BME280;20816;50.950;11.108;2023-01-31T05:56:27;98925.63;;;2.09;100.00
34586;BME280;20816;50.950;11.108;2023-01-31T05:58:54;98923.16;;;2.15;100.00
34586;BME280;20816;50.950;11.108;2023-01-31T06:01:23;98923.75;;;1.99;100.00
34586;BME280;20816;50.950;11.108;2023-01-31T06:03:50;98927.34;;;2.07;100.00
34586;BME280;20816;50.950;11.108;2023-01-31T06:06:18;98934.97;;;2.00;100.00
34586;BME280;20816;50.950;11.108;2023-01-31T06:08:45;98935.97;;;2.06;100.00
34586;BME280;20816;50.950;11.108;2023-01-31T06:11:12;98940.47;;;2.18;100.00
34586;BME280;20816;50.950;11.108;2023-01-31T06:13:41;98955.84;;;2.07;100.00
34586;BME280;20816;50.950;11.108;2023-01-31T06:16:09;98947.38;;;2.16;100.00
34586;BME280;20816;50.950;11.108;2023-01-31T06:18:36;98947.41;;;2.19;100.00
34586;BME280;20816;50.950;11.108;2023-01-31T06:21:03;98954.41;;;2.24;100.00
34586;BME280;20816;50.950;11.108;2023-01-31T06:23:30;98949.25;;;2.26;100.00
34586;BME280;20816;50.950;11.108;2023-01-31T06:25:57;98956.81;;;2.12;100.00
34586;BME280;20816;50.950;11.108;2023-01-31T06:28:23;98954.28;;;2.17;100.00
34586;BME280;20816;50.950;11.108;2023-01-31T06:30:50;98964.88;;;2.29;100.00
34586;BME280;20816;50.950;11.108;2023-01-31T06:33:17;98960.47;;;2.25;100.00
34586;BME280;20816;50.950;11.108;2023-01-31T06:35:43;98964.81;;;2.26;100.00
34586;BME280;20816;50.950;11.108;2023-01-31T06:38:10;98959.63;;;2.26;100.00
34586;BME280;20816;50.950;11.108;2023-01-31T06:40:38;98959.78;;;2.35;100.00
34586;BME280;20816;50.950;11.108;2023-01-31T06:43:05;98965.91;;;2.37;100.00
34586;BME280;20816;50.950;11.108;2023-01-31T06:45:31;98965.16;;;2.44;100.00
34586;BME280;20816;50.950;11.108;2023-01-31T06:47:58;98958.19;;;2.43;100.00
34586;BME280;20816;50.950;11.108;2023-01-31T06:50:25;98962.44;;;2.38;100.00
34586;BME280;20816;50.950;11.108;2023-01-31T06:52:51;98961.69;;;2.45;100.00
34586;BME280;20816;50.950;11.108;2023-01-31T06:55:19;98969.53;;;2.48;100.00
34586;BME280;20816;50.950;11.108;2023-01-31T06:57:47;98974.94;;;2.62;100.00
34586;BME280;20816;50.950;11.108;2023-01-31T07:00:15;98980.19;;;2.67;100.00
34586;BME280;20816;50.950;11.108;2023-01-31T07:02:42;98970.59;;;2.61;99.95
34586;BME280;20816;50.950;11.108;2023-01-31T07:05:09;98979.16;;;2.57;100.00
34586;BME280;20816;50.950;11.108;2023-01-31T07:07:35;98982.53;;;2.51;100.00
34586;BME280;20816;50.950;11.108;2023-01-31T07:10:02;98976.69;;;2.63;100.00
34586;BME280;20816;50.950;11.108;2023-01-31T07:12:29;98976.53;;;2.54;100.00
34586;BME280;20816;50.950;11.108;2023-01-31T07:14:56;98979.25;;;2.62;100.00
34586;BME280;20816;50.950;11.108;2023-01-31T07:17:23;98977.66;;;2.70;100.00
34586;BME280;20816;50.950;11.108;2023-01-31T07:19:50;98983.69;;;2.69;100.00
34586;BME280;20816;50.950;11.108;2023-01-31T07:22:17;98993.16;;;2.67;100.00
34586;BME280;20816;50.950;11.108;2023-01-31T07:24:43;98976.84;;;2.74;100.00
34586;BME280;20816;50.950;11.108;2023-01-31T07:27:13;98984.53;;;2.68;100.00
34586;BME280;20816;50.950;11.108;2023-01-31T07:29:41;98975.19;;;2.77;100.00
34586;BME280;20816;50.950;11.108;2023-01-31T07:32:09;98978.59;;;2.76;99.94
34586;BME280;20816;50.950;11.108;2023-01-31T07:34:36;98965.72;;;2.84;99.38
34586;BME280;20816;50.950;11.108;2023-01-31T07:37:03;98974.38;;;2.83;99.00
34586;BME280;20816;50.950;11.108;2023-01-31T07:39:30;98968.34;;;2.84;98.60
34586;BME280;20816;50.950;11.108;2023-01-31T07:41:57;98973.63;;;2.92;97.63
34586;BME280;20816;50.950;11.108;2023-01-31T07:44:24;98968.50;;;2.93;97.71
34586;BME280;20816;50.950;11.108;2023-01-31T07:46:51;98965.16;;;3.03;97.37
34586;BME280;20816;50.950;11.108;2023-01-31T07:49:20;98959.00;;;2.95;97.57
34586;BME280;20816;50.950;11.108;2023-01-31T07:51:46;98964.28;;;3.01;97.03
34586;BME280;20816;50.950;11.108;2023-01-31T07:54:13;98963.44;;;3.02;96.99
34586;BME280;20816;50.950;11.108;2023-01-31T07:56:40;98956.41;;;2.97;97.76
34586;BME280;20816;50.950;11.108;2023-01-31T07:59:07;98951.31;;;3.01;97.07
34586;BME280;20816;50.950;11.108;2023-01-31T08:01:33;98947.88;;;3.04;97.37
34586;BME280;20816;50.950;11.108;2023-01-31T08:04:18;98948.81;;;3.11;96.81
34586;BME280;20816;50.950;11.108;2023-01-31T08:06:49;98945.41;;;3.15;96.46
34586;BME280;20816;50.950;11.108;2023-01-31T08:09:17;98941.94;;;3.16;96.91
34586;BME280;20816;50.950;11.108;2023-01-31T08:11:44;98939.34;;;3.14;96.93
34586;BME280;20816;50.950;11.108;2023-01-31T08:14:11;98934.25;;;3.22;97.38
34586;BME280;20816;50.950;11.108;2023-01-31T08:16:38;98927.22;;;3.15;97.33
34586;BME280;20816;50.950;11.108;2023-01-31T08:19:05;98923.88;;;3.23;97.17
34586;BME280;20816;50.950;11.108;2023-01-31T08:21:31;98937.81;;;3.31;96.97
34586;BME280;20816;50.950;11.108;2023-01-31T08:23:58;98928.25;;;3.26;97.21
34586;BME280;20816;50.950;11.108;2023-01-31T08:26:25;98934.22;;;3.20;97.53
34586;BME280;20816;50.950;11.108;2023-01-31T08:28:52;98938.66;;;3.26;97.58
34586;BME280;20816;50.950;11.108;2023-01-31T08:31:24;98928.16;;;3.20;97.67
34586;BME280;20816;50.950;11.108;2023-01-31T08:33:51;98930.03;;;3.30;97.52
34586;BME280;20816;50.950;11.108;2023-01-31T08:36:19;98912.81;;;3.41;97.10
34586;BME280;20816;50.950;11.108;2023-01-31T08:38:48;98915.41;;;3.38;97.56
34586;BME280;20816;50.950;11.108;2023-01-31T08:41:16;98895.50;;;3.40;97.37
34586;BME280;20816;50.950;11.108;2023-01-31T08:43:44;98902.41;;;3.38;97.97
34586;BME280;20816;50.950;11.108;2023-01-31T08:46:26;98904.13;;;3.36;99.35
34586;BME280;20816;50.950;11.108;2023-01-31T08:48:53;98908.50;;;3.42;99.26
34586;BME280;20816;50.950;11.108;2023-01-31T08:51:20;98893.81;;;3.42;99.84
34586;BME280;20816;50.950;11.108;2023-01-31T08:53:48;98899.06;;;3.48;100.00
34586;BME280;20816;50.950;11.108;2023-01-31T08:56:14;98899.91;;;3.49;99.43
34586;BME280;20816;50.950;11.108;2023-01-31T08:58:43;98900.00;;;3.56;99.64
34586;BME280;20816;50.950;11.108;2023-01-31T09:01:15;98909.69;;;3.70;99.10
34586;BME280;20816;50.950;11.108;2023-01-31T09:03:41;98888.97;;;3.79;98.38
34586;BME280;20816;50.950;11.108;2023-01-31T09:06:16;98887.22;;;3.75;97.53
34586;BME280;20816;50.950;11.108;2023-01-31T09:08:43;98877.78;;;3.83;97.71
34586;BME280;20816;50.950;11.108;2023-01-31T09:11:11;98872.50;;;3.75;97.98
34586;BME280;20816;50.950;11.108;2023-01-31T09:13:43;98882.06;;;3.81;97.84
34586;BME280;20816;50.950;11.108;2023-01-31T09:16:11;98875.13;;;3.80;98.19
34586;BME280;20816;50.950;11.108;2023-01-31T09:18:40;98876.00;;;3.82;98.46
34586;BME280;20816;50.950;11.108;2023-01-31T09:21:13;98878.59;;;3.79;98.39
34586;BME280;20816;50.950;11.108;2023-01-31T09:23:41;98865.66;;;3.85;98.42
34586;BME280;20816;50.950;11.108;2023-01-31T09:26:09;98870.91;;;3.91;98.69
34586;BME280;20816;50.950;11.108;2023-01-31T09:28:37;98868.25;;;3.85;98.85
34586;BME280;20816;50.950;11.108;2023-01-31T09:31:09;98862.22;;;3.89;98.92
34586;BME280;20816;50.950;11.108;2023-01-31T09:33:36;98863.97;;;3.91;99.28
34586;BME280;20816;50.950;11.108;2023-01-31T09:36:06;98845.72;;;3.87;99.21
34586;BME280;20816;50.950;11.108;2023-01-31T09:38:33;98846.72;;;4.00;99.32
34586;BME280;20816;50.950;11.108;2023-01-31T09:41:04;98845.72;;;3.87;100.00
34586;BME280;20816;50.950;11.108;2023-01-31T09:43:40;98856.19;;;3.96;99.87
34586;BME280;20816;50.950;11.108;2023-01-31T09:46:17;98848.47;;;4.05;99.98
34586;BME280;20816;50.950;11.108;2023-01-31T09:48:48;98841.53;;;4.04;99.56
34586;BME280;20816;50.950;11.108;2023-01-31T09:51:17;98840.75;;;4.14;99.44
34586;BME280;20816;50.950;11.108;2023-01-31T09:53:44;98836.47;;;4.22;99.10
34586;BME280;20816;50.950;11.108;2023-01-31T09:56:33;98839.16;;;4.32;98.03
34586;BME280;20816;50.950;11.108;2023-01-31T09:59:15;98845.19;;;4.29;98.43
34586;BME280;20816;50.950;11.108;2023-01-31T10:04:33;98832.16;;;4.25;98.01
34586;BME280;20816;50.950;11.108;2023-01-31T10:09:42;98817.44;;;4.31;98.14
34586;BME280;20816;50.950;11.108;2023-01-31T10:12:20;98828.75;;;4.35;98.68
34586;BME280;20816;50.950;11.108;2023-01-31T10:14:51;98818.41;;;4.44;98.13
34586;BME280;20816;50.950;11.108;2023-01-31T10:17:25;98834.06;;;4.50;98.16
34586;BME280;20816;50.950;11.108;2023-01-31T10:20:15;98828.88;;;4.55;97.54
34586;BME280;20816;50.950;11.108;2023-01-31T10:22:51;98821.94;;;4.52;97.79
34586;BME280;20816;50.950;11.108;2023-01-31T10:25:26;98821.97;;;4.61;97.46
34586;BME280;20816;50.950;11.108;2023-01-31T10:28:00;98828.97;;;4.68;97.14
34586;BME280;20816;50.950;11.108;2023-01-31T10:30:39;98832.44;;;4.70;97.05
34586;BME280;20816;50.950;11.108;2023-01-31T10:33:18;98828.97;;;4.68;96.82
34586;BME280;20816;50.950;11.108;2023-01-31T10:35:49;98825.47;;;4.66;96.67
34586;BME280;20816;50.950;11.108;2023-01-31T10:38:23;98791.63;;;4.65;96.78
34586;BME280;20816;50.950;11.108;2023-01-31T10:41:06;98789.88;;;4.61;98.08
34586;BME280;20816;50.950;11.108;2023-01-31T10:43:38;98788.13;;;4.57;97.62
34586;BME280;20816;50.950;11.108;2023-01-31T10:46:11;98785.53;;;4.58;97.62
34586;BME280;20816;50.950;11.108;2023-01-31T10:48:41;98787.22;;;4.50;97.98
34586;BME280;20816;50.950;11.108;2023-01-31T10:54:04;98785.44;;;4.40;98.32
34586;BME280;20816;50.950;11.108;2023-01-31T10:56:37;98776.69;;;4.30;98.81
34586;BME280;20816;50.950;11.108;2023-01-31T10:59:21;98777.59;;;4.32;98.56
34586;BME280;20816;50.950;11.108;2023-01-31T11:01:49;98777.63;;;4.41;98.29
34586;BME280;20816;50.950;11.108;2023-01-31T11:04:32;98755.91;;;4.35;98.09
34586;BME280;20816;50.950;11.108;2023-01-31T11:07:01;98748.09;;;4.33;97.52
34586;BME280;20816;50.950;11.108;2023-01-31T11:09:32;98755.91;;;4.35;97.51
34586;BME280;20816;50.950;11.108;2023-01-31T11:12:02;98757.59;;;4.28;98.83
34586;BME280;20816;50.950;11.108;2023-01-31T11:14:29;98752.44;;;4.33;98.67
34586;BME280;20816;50.950;11.108;2023-01-31T11:17:13;98740.28;;;4.33;97.89
34586;BME280;20816;50.950;11.108;2023-01-31T11:19:50;98743.78;;;4.37;97.94
34586;BME280;20816;50.950;11.108;2023-01-31T11:22:29;98738.47;;;4.21;97.77
34586;BME280;20816;50.950;11.108;2023-01-31T11:24:58;98749.78;;;4.25;98.38
34586;BME280;20816;50.950;11.108;2023-01-31T11:27:37;98703.78;;;4.22;99.14
34586;BME280;20816;50.950;11.108;2023-01-31T11:30:06;98710.72;;;4.20;99.22
34586;BME280;20816;50.950;11.108;2023-01-31T11:32:35;98721.13;;;4.17;99.63
34586;BME280;20816;50.950;11.108;2023-01-31T11:35:06;98707.25;;;4.15;99.40
34586;BME280;20816;50.950;11.108;2023-01-31T11:43:02;98689.00;;;4.11;99.44
34586;BME280;20816;50.950;11.108;2023-01-31T11:45:31;98680.34;;;4.09;100.00
34586;BME280;20816;50.950;11.108;2023-01-31T11:48:17;98681.16;;;4.06;100.00
34586;BME280;20816;50.950;11.108;2023-01-31T11:50:50;98673.31;;;3.97;100.00
34586;BME280;20816;50.950;11.108;2023-01-31T11:53:18;98664.66;;;3.98;100.00
34586;BME280;20816;50.950;11.108;2023-01-31T11:55:47;98653.41;;;4.05;100.00
34586;BME280;20816;50.950;11.108;2023-01-31T11:58:25;98633.44;;;3.98;100.00
34586;BME280;20816;50.950;11.108;2023-01-31T12:01:12;98630.03;;;4.04;100.00
34586;BME280;20816;50.950;11.108;2023-01-31T12:03:46;98627.41;;;3.99;100.00
34586;BME280;20816;50.950;11.108;2023-01-31T12:06:35;98610.03;;;3.98;100.00
34586;BME280;20816;50.950;11.108;2023-01-31T12:09:24;98580.56;;;3.96;100.00
34586;BME280;20816;50.950;11.108;2023-01-31T12:11:58;98592.72;;;3.92;100.00
34586;BME280;20816;50.950;11.108;2023-01-31T12:14:37;98584.91;;;3.94;100.00
34586;BME280;20816;50.950;11.108;2023-01-31T12:17:10;98589.22;;;3.83;100.00
34586;BME280;20816;50.950;11.108;2023-01-31T12:20:16;98561.44;;;3.82;100.00
34586;BME280;20816;50.950;11.108;2023-01-31T12:23:06;98547.56;;;3.81;100.00
34586;BME280;20816;50.950;11.108;2023-01-31T12:26:00;98537.22;;;3.83;100.00
34586;BME280;20816;50.950;11.108;2023-01-31T12:31:23;98521.63;;;3.98;100.00
34586;BME280;20816;50.950;11.108;2023-01-31T12:36:58;98499.13;;;4.02;100.00
34586;BME280;20816;50.950;11.108;2023-01-31T12:42:31;98514.75;;;4.14;100.00
34586;BME280;20816;50.950;11.108;2023-01-31T12:51:00;98511.28;;;4.10;100.00
34586;BME280;20816;50.950;11.108;2023-01-31T12:53:53;98506.09;;;4.19;100.00
34586;BME280;20816;50.950;11.108;2023-01-31T12:56:33;98513.94;;;4.24;100.00
34586;BME280;20816;50.950;11.108;2023-01-31T12:59:40;98509.59;;;4.34;100.00
34586;BME280;20816;50.950;11.108;2023-01-31T13:02:23;98489.63;;;4.31;100.00
34586;BME280;20816;50.950;11.108;2023-01-31T13:07:51;98472.28;;;4.29;100.00
34586;BME280;20816;50.950;11.108;2023-01-31T13:12:59;98472.31;;;4.24;99.38
34586;BME280;20816;50.950;11.108;2023-01-31T13:15:31;98462.75;;;4.21;99.58
34586;BME280;20816;50.950;11.108;2023-01-31T13:18:05;98470.56;;;4.17;99.85
34586;BME280;20816;50.950;11.108;2023-01-31T13:20:37;98462.75;;;4.18;100.00
34586;BME280;20816;50.950;11.108;2023-01-31T13:23:14;98457.53;;;4.21;99.34
34586;BME280;20816;50.950;11.108;2023-01-31T13:25:50;98453.19;;;4.22;99.61
34586;BME280;20816;50.950;11.108;2023-01-31T13:28:28;98451.47;;;4.16;100.00
34586;BME280;20816;50.950;11.108;2023-01-31T13:30:58;98469.69;;;4.22;100.00
34586;BME280;20816;50.950;11.108;2023-01-31T13:33:35;98469.66;;;4.13;100.00
34586;BME280;20816;50.950;11.108;2023-01-31T13:38:41;98477.47;;;4.15;100.00
34586;BME280;20816;50.950;11.108;2023-01-31T13:41:18;98480.91;;;4.05;100.00
34586;BME280;20816;50.950;11.108;2023-01-31T13:43:47;98474.00;;;4.11;100.00
34586;BME280;20816;50.950;11.108;2023-01-31T13:46:19;98490.47;;;4.12;100.00
34586;BME280;20816;50.950;11.108;2023-01-31T13:49:09;98495.69;;;4.10;100.00
34586;BME280;20816;50.950;11.108;2023-01-31T13:51:48;98490.47;;;4.15;100.00
34586;BME280;20816;50.950;11.108;2023-01-31T13:54:21;98483.53;;;4.06;100.00
34586;BME280;20816;50.950;11.108;2023-01-31T13:56:52;98488.75;;;4.12;100.00
34586;BME280;20816;50.950;11.108;2023-01-31T13:59:23;98493.91;;;4.06;100.00
34586;BME280;20816;50.950;11.108;2023-01-31T14:01:52;98500.03;;;4.08;100.00
34586;BME280;20816;50.950;11.108;2023-01-31T14:04:23;98501.75;;;4.11;100.00
34586;BME280;20816;50.950;11.108;2023-01-31T14:06:56;98499.16;;;4.12;100.00
34586;BME280;20816;50.950;11.108;2023-01-31T14:11:57;98519.06;;;4.06;100.00
34586;BME280;20816;50.950;11.108;2023-01-31T14:17:04;98511.25;;;3.95;100.00
34586;BME280;20816;50.950;11.108;2023-01-31T14:22:23;98506.03;;;3.95;100.00
34586;BME280;20816;50.950;11.108;2023-01-31T14:27:21;98513.00;;;4.02;100.00